Grand Forks Air Force Base
KRDR : rendu visible

Aérodrome :











RETROUVEZ-NOUS SUR...

 
LOGIN :

S'inscrire | Disclaimer

   EN    FR    IT 

 









Légende :    VFR   VFR Marginal   IFR   IFR Intensif   IFR Très Intensif
Visi : 
Plafond : 
>= 8 km
>= 3000ft
5 à 8 km
1000 à 3000 ft
1500m à 5 km
500 à 1000 ft
800 à 1500m
200 à 500 ft
< 800m
< 200 ft
Symboles :   Orages  Brouillard  Fortes neiges  Fortes précipitations  Vent > 20 kt






- Altitude de l'aérodrome : 913 ft


KRDR - Grand Forks Air Force Base

DERNIER METAR :
  • 222256Z 19015KT 10SM CLR 03/M03 A2974 RMK AO2A SLP090 T00251030 $

METARs EXPIRÉS :
  • 222156Z AUTO 18012KT 10SM CLR 03/M02 A2978 RMK AO2 SLP103

TAF TAF KRDR
Valide du 22 à 18h jusqu'au 24 à 00h UTC


221800Z 2218/2324 21010G15KT 9999 FEW150 QNH2974INS
BECMG 2310/2311 29010G15KT 9999 FEW007 SCT015 QNH2974INS
BECMG 2317/2318 26009KT 9999 SCT010 BKN040 QNH2965INS TX02/2318Z TNM09/2218Z



MET'MAP, la Météo Aéronautique d'un coup d'oeil ! - Copyright ORBIFLY Décembre 2007 - Disclaimer

ORBIFLY MET'MAP TEAM :

Programmation & Développement : Alexandra Zaïnal
Conception & Développement : Baudouin d'Aumeries
Co-Programmation & Développement : Marc-Olivier Méhu
Soutien technique & logistique : Manuel Goepfert

Contact : metmap@orbifly.com




SOURCES & CREDITS :

   NOAA       Earth
Advisory